Time;durP1;ratioP1;P1;durP2;ratioP2;P2;SDS_P1;SDS_P2;PMS_P1;PMS_P2;Temp;Humidity;BMP_temperature;BMP_pressure;BME280_temperature;BME280_humidity;BME280_pressure;Samples;Min_cycle;Max_cycle;Signal;HPM_P1;HPM_P2
2022/09/04 00:01:38;;;;;;;2.03;1.73;;;15.30;99.90;;;15.02;100.00;97226.22;4976077;28;20095;-48
2022/09/04 00:04:16;;;;;;;2.40;2.00;;;15.30;99.90;;;15.03;100.00;97230.56;4957857;28;20018;-48
2022/09/04 00:07:23;;;;;;;2.17;1.90;;;15.20;99.90;;;14.99;100.00;97229.03;4981770;28;20107;-48
2022/09/04 00:10:10;;;;;;;1.85;1.50;;;15.20;99.90;;;14.97;100.00;97233.56;4979013;28;20118;-47
2022/09/04 00:13:00;;;;;;;2.75;2.22;;;15.20;99.90;;;14.94;100.00;97227.59;4978068;28;20076;-48
2022/09/04 00:15:34;;;;;;;2.25;1.67;;;15.20;99.90;;;14.92;100.00;97232.97;4977553;28;20042;-46
2022/09/04 00:18:14;;;;;;;2.65;2.00;;;15.20;99.90;;;14.89;100.00;97227.84;4961300;28;22293;-49
2022/09/04 00:20:53;;;;;;;2.47;1.77;;;15.10;99.90;;;14.89;100.00;97222.53;4957547;28;20124;-47
2022/09/04 00:23:43;;;;;;;3.35;2.00;;;15.10;99.90;;;14.86;100.00;97225.38;4960906;28;20041;-47
2022/09/04 00:26:56;;;;;;;2.08;1.67;;;15.10;99.90;;;14.84;100.00;97227.22;4962107;28;20040;-47
2022/09/04 00:30:00;;;;;;;2.28;1.77;;;15.10;99.90;;;14.80;100.00;97223.06;4978411;28;20108;-47
2022/09/04 00:32:48;;;;;;;3.63;2.15;;;15.00;99.90;;;14.78;100.00;97232.91;4975846;28;20058;-47
2022/09/04 00:35:20;;;;;;;3.08;2.20;;;15.00;99.90;;;14.76;100.00;97233.00;4970368;28;20037;-45
2022/09/04 00:38:42;;;;;;;2.92;2.35;;;15.00;99.90;;;14.73;100.00;97235.81;4978405;28;20616;-45
2022/09/04 00:41:31;;;;;;;7.32;2.35;;;15.00;99.90;;;14.71;100.00;97237.69;4983494;28;20508;-45
2022/09/04 00:44:26;;;;;;;3.53;2.40;;;15.00;99.90;;;14.68;100.00;97241.41;4962402;28;20075;-45
2022/09/04 00:47:24;;;;;;;2.85;2.42;;;14.90;99.90;;;14.68;100.00;97240.53;4976521;28;20096;-48
2022/09/04 00:50:05;;;;;;;2.88;2.28;;;14.90;99.90;;;14.69;100.00;97236.94;4974554;28;20128;-49
2022/09/04 00:53:23;;;;;;;3.28;2.22;;;14.90;99.90;;;14.66;100.00;97239.75;4975601;28;20040;-46
2022/09/04 00:56:15;;;;;;;4.00;2.40;;;14.90;99.90;;;14.63;100.00;97242.59;4963249;28;20030;-44
2022/09/04 00:58:54;;;;;;;3.40;2.60;;;14.90;99.90;;;14.60;100.00;97243.59;4980858;28;20806;-49
2022/09/04 01:01:26;;;;;;;3.50;2.65;;;14.90;99.90;;;14.58;100.00;97245.50;4966496;28;20038;-46
2022/09/04 01:04:02;;;;;;;;;;;14.80;99.90;;;14.56;100.00;97246.50;4972354;28;20029;-46
2022/09/04 01:07:08;;;;;;;4.20;3.17;;;14.80;99.90;;;14.55;100.00;97253.59;4976038;28;20004;-49
2022/09/04 01:09:42;;;;;;;4.35;3.10;;;14.80;99.90;;;14.53;100.00;97250.16;4974224;28;20584;-44
2022/09/04 01:12:35;;;;;;;3.67;3.28;;;14.80;99.90;;;14.52;100.00;97253.78;4977300;28;20053;-46
2022/09/04 01:15:15;;;;;;;;;;;14.80;99.90;;;14.39;100.00;97236.78;4978472;28;20025;-46
2022/09/04 01:17:59;;;;;;;3.97;3.15;;;14.80;99.90;;;14.53;100.00;97258.13;4963059;28;19921;-47
2022/09/04 01:21:12;;;;;;;5.82;3.78;;;14.80;99.90;;;14.50;100.00;97260.97;4981993;28;20106;-46
2022/09/04 01:23:51;;;;;;;3.47;2.95;;;14.80;99.90;;;14.51;100.00;97266.16;4979419;28;20040;-49
2022/09/04 01:27:16;;;;;;;5.05;3.40;;;14.80;99.90;;;14.50;100.00;97268.94;4974590;28;20033;-48
2022/09/04 01:30:04;;;;;;;5.28;3.45;;;14.80;99.90;;;14.51;100.00;97265.31;4970661;28;20026;-48
2022/09/04 01:32:51;;;;;;;3.88;3.05;;;14.80;99.90;;;14.51;100.00;97279.44;4965936;28;20174;-44
2022/09/04 01:35:48;;;;;;;4.07;2.97;;;14.80;99.90;;;14.48;100.00;97265.47;4978401;28;20131;-47
2022/09/04 01:38:24;;;;;;;5.05;3.20;;;14.70;99.90;;;14.44;100.00;97271.91;4974613;28;20034;-47
2022/09/04 01:41:12;;;;;;;5.25;3.40;;;14.80;99.90;;;14.44;100.00;97275.41;4958304;28;20049;-47
2022/09/04 01:43:39;;;;;;;3.25;2.95;;;14.70;99.90;;;14.44;100.00;97274.56;4960404;28;20052;-49
2022/09/04 01:46:19;;;;;;;3.85;3.15;;;14.70;99.90;;;14.41;100.00;97277.38;4958667;28;20037;-48
2022/09/04 01:49:19;;;;;;;3.40;2.70;;;14.70;99.90;;;14.38;100.00;97283.69;4954484;28;20139;-46
2022/09/04 01:52:28;;;;;;;5.47;3.17;;;14.70;99.90;;;14.36;100.00;97287.41;4981114;28;20041;-46
2022/09/04 01:55:31;;;;;;;3.78;2.80;;;14.60;99.90;;;14.33;100.00;97285.75;4974910;28;20116;-46
2022/09/04 01:58:27;;;;;;;4.05;2.95;;;14.60;99.90;;;14.32;100.00;97282.25;4974374;28;20034;-45
2022/09/04 02:01:22;;;;;;;3.92;2.47;;;14.60;99.90;;;14.17;100.00;97266.28;4956016;28;20038;-47
2022/09/04 02:04:31;;;;;;;5.28;2.80;;;14.60;99.90;;;14.29;100.00;97284.19;4980363;28;20518;-48
2022/09/04 02:07:23;;;;;;;4.07;2.78;;;14.60;99.90;;;14.25;100.00;97282.66;4936061;28;20520;-50
2022/09/04 02:10:08;;;;;;;3.08;2.63;;;14.60;99.90;;;14.28;100.00;97299.28;4954134;28;20066;-49
2022/09/04 02:13:21;;;;;;;3.17;2.88;;;14.60;99.90;;;14.25;100.00;97296.78;4952028;28;20042;-48
2022/09/04 02:16:13;;;;;;;2.28;2.05;;;14.60;99.90;;;14.25;100.00;97291.47;4960984;28;20034;-47
2022/09/04 02:19:18;;;;;;;3.22;2.90;;;14.60;99.90;;;14.11;100.00;97280.75;4979496;28;20144;-46
2022/09/04 02:22:00;;;;;;;3.58;2.60;;;14.50;99.90;;;14.08;100.00;97275.59;4975633;28;20057;-47
2022/09/04 02:25:04;;;;;;;2.80;2.50;;;14.50;99.90;;;14.21;100.00;97299.66;4964533;23;20051;-51
2022/09/04 02:28:24;;;;;;;3.47;2.75;;;14.50;99.90;;;14.18;100.00;97297.19;4945083;28;20402;-51
2022/09/04 02:31:11;;;;;;;3.40;2.65;;;14.50;99.90;;;14.15;100.00;97300.00;4938031;28;20125;-50
2022/09/04 02:33:41;;;;;;;2.65;2.45;;;14.40;99.90;;;14.11;100.00;97297.50;4951999;28;21371;-50
2022/09/04 02:36:17;;;;;;;3.20;2.63;;;14.40;99.90;;;14.12;100.00;97304.53;4957846;28;20033;-49
2022/09/04 02:39:18;;;;;;;3.88;2.90;;;14.40;99.90;;;14.10;100.00;97298.47;4969649;28;20422;-48
2022/09/04 02:42:03;;;;;;;4.20;2.65;;;14.40;99.90;;;14.09;100.00;97309.97;4956601;28;20046;-50
2022/09/04 02:45:04;;;;;;;2.83;2.63;;;14.40;99.90;;;14.08;100.00;97299.47;4953553;28;20176;-51
2022/09/04 02:48:12;;;;;;;3.17;2.70;;;14.40;99.90;;;14.06;100.00;97298.69;4954563;28;20045;-49
2022/09/04 02:51:12;;;;;;;3.05;2.65;;;14.40;99.90;;;13.99;100.00;97292.84;4942058;28;20446;-49
2022/09/04 02:54:00;;;;;;;3.17;2.85;;;14.30;99.90;;;14.05;100.00;97302.25;4948943;28;20064;-47
2022/09/04 02:56:38;;;;;;;2.80;2.47;;;14.30;99.90;;;14.06;100.00;97293.38;4953979;28;20045;-47
2022/09/04 02:59:36;;;;;;;3.25;2.65;;;14.30;99.90;;;14.04;100.00;97301.41;4940110;28;20053;-49
2022/09/04 03:02:25;;;;;;;2.85;2.38;;;14.30;99.90;;;14.03;100.00;97305.03;4952642;28;20042;-48
2022/09/04 03:05:18;;;;;;;2.47;2.17;;;14.30;99.90;;;14.03;100.00;97304.13;4941495;28;20502;-50
2022/09/04 03:08:20;;;;;;;;;;;14.30;99.90;;;13.99;100.00;97307.91;4953057;28;20060;-50
2022/09/04 03:11:17;;;;;;;2.83;2.30;;;14.30;99.90;;;13.98;100.00;97306.16;4940264;28;20036;-48
2022/09/04 03:14:00;;;;;;;3.83;2.55;;;14.20;99.90;;;13.97;100.00;97309.78;4955237;28;20034;-51
2022/09/04 03:16:32;;;;;;;3.40;2.90;;;14.30;99.90;;;13.96;100.00;97310.69;4941251;28;20030;-48
2022/09/04 03:19:19;;;;;;;3.22;2.80;;;14.20;99.90;;;13.95;100.00;97307.19;4959545;28;20104;-47
2022/09/04 03:21:48;;;;;;;3.35;3.05;;;14.30;99.90;;;13.94;100.00;97309.00;4946192;28;20042;-51
2022/09/04 03:24:51;;;;;;;3.13;2.83;;;14.20;99.90;;;13.92;100.00;97305.53;4964043;28;20038;-49
2022/09/04 03:27:19;;;;;;;5.20;3.55;;;14.20;99.90;;;13.89;100.00;97303.06;4924284;28;20046;-47
2022/09/04 03:30:09;;;;;;;3.75;3.10;;;14.20;99.90;;;13.92;100.00;97315.31;4955727;28;20038;-51
2022/09/04 03:33:02;;;;;;;3.40;3.00;;;14.20;99.90;;;13.92;100.00;97313.50;4933773;28;20035;-49
2022/09/04 03:35:39;;;;;;;5.03;3.70;;;14.20;99.90;;;13.91;100.00;97317.09;4952353;28;20039;-49
2022/09/04 03:39:01;;;;;;;5.28;3.67;;;14.20;99.90;;;13.91;100.00;97316.25;4958122;28;20053;-52
2022/09/04 03:42:04;;;;;;;3.80;3.03;;;14.20;99.90;;;13.89;100.00;97324.28;4923231;28;20042;-49
2022/09/04 03:44:54;;;;;;;3.72;3.05;;;14.20;99.90;;;13.88;100.00;97319.06;4925010;28;20078;-47
2022/09/04 03:47:41;;;;;;;3.83;3.20;;;14.20;99.90;;;13.86;100.00;97318.28;4957112;28;20125;-50
2022/09/04 03:50:21;;;;;;;3.30;3.00;;;14.20;99.90;;;13.83;100.00;97319.28;4939011;28;20061;-50
2022/09/04 03:53:14;;;;;;;4.95;3.00;;;14.10;99.90;;;13.84;100.00;97322.81;4956628;28;20034;-51
2022/09/04 03:56:11;;;;;;;4.28;3.10;;;14.20;99.90;;;13.80;100.00;97319.47;4953003;28;20039;-52
2022/09/04 03:58:46;;;;;;;3.13;2.70;;;14.20;99.90;;;13.82;100.00;97319.34;4954696;28;20030;-51
2022/09/04 04:01:28;;;;;;;5.03;3.00;;;14.20;99.90;;;13.81;100.00;97323.81;4955697;28;20030;-49
2022/09/04 04:04:42;;;;;;;2.47;2.25;;;14.20;99.90;;;13.83;100.00;97319.28;4951159;28;20083;-48
2022/09/04 04:07:45;;;;;;;3.38;2.78;;;14.10;99.90;;;13.80;100.00;97326.53;4952793;28;20038;-52
2022/09/04 04:10:18;;;;;;;;;;;14.10;99.90;;;13.65;100.00;97309.63;4935826;28;20514;-51
2022/09/04 04:13:07;;;;;;;3.03;2.72;;;14.10;99.90;;;13.75;100.00;97340.03;4952464;28;20068;-50
2022/09/04 04:16:11;;;;;;;3.83;2.75;;;14.00;99.90;;;13.69;100.00;97337.69;4956219;28;20073;-49
2022/09/04 04:19:11;;;;;;;3.10;2.75;;;14.00;99.90;;;13.67;100.00;97340.41;4932894;28;20030;-52
2022/09/04 04:22:18;;;;;;;3.50;2.65;;;14.00;99.90;;;13.64;100.00;97351.19;4953178;28;20031;-49
2022/09/04 04:25:05;;;;;;;3.00;2.70;;;13.90;99.90;;;13.63;100.00;97353.91;4954340;28;20165;-47
2022/09/04 04:27:48;;;;;;;2.70;2.50;;;13.90;99.90;;;13.62;100.00;97354.81;4954097;28;20042;-51
2022/09/04 04:30:16;;;;;;;3.10;2.70;;;13.90;99.90;;;13.62;100.00;97362.78;4959261;28;20664;-51
2022/09/04 04:33:16;;;;;;;3.35;2.72;;;13.90;99.90;;;13.63;100.00;97361.84;4950816;28;20046;-50
2022/09/04 04:36:48;;;;;;;3.10;2.80;;;13.90;99.90;;;13.63;100.00;97362.69;4932002;28;20043;-51
2022/09/04 04:40:00;;;;;;;3.30;3.00;;;13.90;99.90;;;13.64;100.00;97366.19;4934982;28;20097;-48
2022/09/04 04:43:00;;;;;;;4.30;3.05;;;14.00;99.90;;;13.66;100.00;97372.31;4952123;28;20027;-52
2022/09/04 04:45:49;;;;;;;4.10;3.13;;;14.00;99.90;;;13.66;100.00;97369.66;4955100;28;20510;-49
2022/09/04 04:48:28;;;;;;;3.80;3.00;;;14.00;99.90;;;13.65;100.00;97384.69;4940715;28;20618;-50
2022/09/04 04:51:31;;;;;;;4.03;3.35;;;13.90;99.90;;;13.63;100.00;97383.91;4948872;28;20293;-51
2022/09/04 04:54:29;;;;;;;3.95;3.10;;;14.00;99.90;;;13.63;100.00;97389.19;4955487;28;20125;-48
2022/09/04 04:57:16;;;;;;;3.88;3.13;;;14.00;99.90;;;13.59;100.00;97384.16;4950471;28;20041;-51
2022/09/04 05:00:24;;;;;;;3.85;3.20;;;13.90;99.90;;;13.64;100.00;97393.56;4935522;28;20483;-48
2022/09/04 05:03:14;;;;;;;4.03;3.10;;;13.90;99.90;;;13.67;100.00;97403.16;4951273;28;20613;-52
2022/09/04 05:06:02;;;;;;;4.10;3.45;;;13.90;99.90;;;13.68;100.00;97400.44;4933208;28;20030;-51
2022/09/04 05:09:10;;;;;;;4.45;3.50;;;14.00;99.90;;;13.70;100.00;97400.34;4960924;28;20037;-50
2022/09/04 05:12:02;;;;;;;4.68;3.63;;;14.00;99.90;;;13.74;100.00;97412.53;4955738;28;20026;-51
2022/09/04 05:14:38;;;;;;;3.72;3.30;;;14.10;99.90;;;13.74;100.00;97409.88;4961517;28;20038;-51
2022/09/04 05:17:24;;;;;;;4.00;3.35;;;14.10;99.90;;;13.78;100.00;97416.72;4959460;28;20042;-51
2022/09/04 05:20:22;;;;;;;4.57;3.65;;;14.10;99.90;;;13.82;100.00;97420.97;4933944;28;20824;-52
2022/09/04 05:23:36;;;;;;;3.67;3.28;;;14.10;99.90;;;13.85;100.00;97428.75;4933581;28;20403;-49
2022/09/04 05:26:23;;;;;;;4.60;3.10;;;14.10;99.90;;;13.91;100.00;97432.91;4941717;28;20081;-49
2022/09/04 05:29:13;;;;;;;3.55;3.13;;;14.20;99.90;;;13.94;100.00;97430.97;4936975;28;20038;-49
2022/09/04 05:32:13;;;;;;;3.80;3.30;;;14.20;99.90;;;13.87;100.00;97416.28;4939669;28;21337;-50
2022/09/04 05:35:12;;;;;;;5.20;3.47;;;14.30;99.90;;;14.05;100.00;97442.78;4939407;28;20030;-52
2022/09/04 05:37:57;;;;;;;4.95;3.63;;;14.40;99.90;;;14.09;100.00;97447.03;4952416;28;20038;-50
2022/09/04 05:41:04;;;;;;;5.10;3.80;;;14.40;99.90;;;14.13;100.00;97451.25;4963295;28;20041;-49
2022/09/04 05:44:04;;;;;;;4.75;3.95;;;14.40;99.90;;;14.20;100.00;97455.28;4963799;28;20061;-48
2022/09/04 05:46:41;;;;;;;3.97;3.53;;;14.50;99.90;;;14.24;100.00;97461.31;4954988;28;20030;-50
2022/09/04 05:49:32;;;;;;;4.40;3.55;;;14.50;99.90;;;14.29;100.00;97465.44;4965515;28;20034;-51
2022/09/04 05:52:32;;;;;;;4.97;4.03;;;14.60;99.90;;;14.35;100.00;97464.25;4961718;28;20134;-48
2022/09/04 05:55:41;;;;;;;4.10;3.60;;;14.60;99.90;;;14.40;100.00;97477.31;4957885;28;20577;-50
2022/09/04 05:58:18;;;;;;;8.07;3.75;;;14.70;99.90;;;14.44;100.00;97471.75;4962555;28;20319;-50
2022/09/04 06:01:14;;;;;;;4.32;3.92;;;14.70;99.90;;;14.45;100.00;97467.31;4955549;28;20554;-51
2022/09/04 06:04:11;;;;;;;4.85;4.35;;;14.80;99.90;;;14.54;100.00;97476.59;4960132;28;20045;-49
2022/09/04 06:06:47;;;;;;;4.07;3.63;;;14.80;99.90;;;14.59;100.00;97478.09;4946693;28;20030;-50
2022/09/04 06:09:27;;;;;;;4.20;3.47;;;14.90;99.90;;;14.65;100.00;97483.09;4949126;28;20117;-51
2022/09/04 06:12:05;;;;;;;4.00;3.60;;;14.90;99.90;;;14.69;100.00;97481.97;4968352;28;20046;-51
2022/09/04 06:14:48;;;;;;;3.50;3.20;;;15.00;99.90;;;14.76;100.00;97485.19;4973960;28;20088;-52
2022/09/04 06:17:39;;;;;;;4.03;3.63;;;15.10;99.90;;;14.80;100.00;97478.75;4964949;28;20034;-50
2022/09/04 06:20:26;;;;;;;4.97;3.97;;;15.10;99.90;;;14.85;100.00;97490.00;4953790;28;20234;-50
2022/09/04 06:23:04;;;;;;;4.68;3.28;;;15.20;99.90;;;14.97;100.00;97490.31;4970513;28;20054;-52
2022/09/04 06:25:53;;;;;;;5.15;3.92;;;15.20;99.90;;;15.04;100.00;97494.34;4970685;28;20034;-50
2022/09/04 06:29:01;;;;;;;4.22;3.67;;;15.30;99.90;;;15.13;100.00;97495.63;4973658;28;20398;-51
2022/09/04 06:31:55;;;;;;;4.10;3.70;;;15.40;99.90;;;15.22;100.00;97506.63;4971472;28;20173;-51
2022/09/04 06:35:18;;;;;;;3.90;3.53;;;15.50;99.90;;;15.29;100.00;97504.50;4976709;28;20073;-52
2022/09/04 06:38:00;;;;;;;5.60;3.78;;;15.60;99.90;;;15.37;100.00;97507.59;4945781;28;20042;-52
2022/09/04 06:41:09;;;;;;;5.45;4.20;;;15.70;99.90;;;15.43;100.00;97512.59;4958728;28;20064;-50
2022/09/04 06:43:50;;;;;;;5.00;4.13;;;15.70;99.90;;;15.52;100.00;97515.66;4972939;28;20018;-49
2022/09/04 06:46:45;;;;;;;9.23;3.67;;;15.80;99.90;;;15.59;100.00;97517.03;4975499;28;20135;-52
2022/09/04 06:49:58;;;;;;;4.30;3.65;;;15.90;99.90;;;15.66;100.00;97510.44;4956437;28;20038;-51
2022/09/04 06:53:07;;;;;;;7.00;4.18;;;15.90;99.90;;;15.71;100.00;97513.72;4979040;28;20038;-52
2022/09/04 06:56:17;;;;;;;5.60;4.65;;;16.00;99.90;;;15.77;100.00;97510.75;4975478;28;20049;-49
2022/09/04 06:59:13;;;;;;;5.75;4.25;;;16.10;99.90;;;15.86;100.00;97514.69;4977898;28;20137;-51
2022/09/04 07:01:51;;;;;;;4.55;4.07;;;16.10;99.90;;;15.94;100.00;97519.59;4980087;28;20034;-48
2022/09/04 07:04:50;;;;;;;6.22;3.83;;;16.20;99.90;;;16.01;100.00;97524.47;4979338;28;20049;-50
2022/09/04 07:07:46;;;;;;;4.32;3.92;;;16.30;99.90;;;16.07;100.00;97530.38;4964516;28;20088;-48
2022/09/04 07:10:19;;;;;;;4.75;4.25;;;16.40;99.90;;;16.11;100.00;97531.91;4979748;28;20054;-51
2022/09/04 07:13:46;;;;;;;5.65;4.20;;;16.40;99.90;;;16.18;100.00;97536.78;4978001;28;20026;-47
2022/09/04 07:16:37;;;;;;;4.97;4.10;;;16.50;99.90;;;16.23;100.00;97548.03;4939096;28;20035;-51
2022/09/04 07:19:47;;;;;;;4.13;3.58;;;16.50;99.90;;;16.30;100.00;97542.38;4937423;28;20039;-47
2022/09/04 07:23:02;;;;;;;4.57;3.83;;;16.60;99.90;;;16.40;100.00;97546.19;4976826;28;20471;-47
2022/09/04 07:25:51;;;;;;;5.28;4.00;;;16.70;99.90;;;16.48;100.00;97554.59;4983494;28;20030;-50
2022/09/04 07:28:58;;;;;;;4.55;3.75;;;16.70;99.90;;;16.64;100.00;97559.03;4979984;28;20494;-50
2022/09/04 07:31:53;;;;;;;3.53;3.15;;;16.90;99.90;;;16.77;100.00;97549.34;4961271;28;20053;-50
2022/09/04 07:34:46;;;;;;;7.57;4.00;;;17.00;99.90;;;16.90;100.00;97553.00;4972601;28;20395;-50
2022/09/04 07:37:23;;;;;;;4.68;3.58;;;17.10;99.90;;;17.03;100.00;97553.16;4949057;28;20123;-46
2022/09/04 07:40:08;;;;;;;4.75;3.13;;;17.30;99.90;;;17.15;100.00;97568.38;4966911;28;20061;-51
2022/09/04 07:43:16;;;;;;;4.65;3.40;;;17.40;99.90;;;17.23;100.00;97557.28;4980117;28;20043;-50
2022/09/04 07:45:49;;;;;;;4.43;3.60;;;17.50;99.90;;;17.35;100.00;97566.31;4977017;28;20038;-48
2022/09/04 07:48:43;;;;;;;5.50;3.17;;;17.60;99.90;;;17.49;100.00;97576.13;4980697;28;20114;-49
2022/09/04 07:51:14;;;;;;;4.40;3.33;;;17.70;99.90;;;17.58;100.00;97569.34;4975329;28;20125;-50
2022/09/04 07:53:58;;;;;;;4.47;2.95;;;17.80;99.90;;;17.66;100.00;97575.94;4958410;28;20026;-48
2022/09/04 07:57:04;;;;;;;3.25;2.50;;;17.90;99.90;;;17.74;100.00;97584.28;4971936;28;20033;-46
2022/09/04 08:00:07;;;;;;;3.03;2.60;;;18.00;99.90;;;17.89;100.00;97592.31;4976866;28;20038;-49
2022/09/04 08:03:20;;;;;;;3.67;2.55;;;18.10;99.90;;;18.04;100.00;97587.81;4972306;28;20034;-49
2022/09/04 08:06:04;;;;;;;2.83;2.40;;;18.30;99.90;;;18.22;100.00;97589.28;4970663;28;20041;-48
2022/09/04 08:09:08;;;;;;;2.58;2.30;;;18.40;99.90;;;18.41;100.00;97585.41;4975319;28;20069;-51
2022/09/04 08:12:16;;;;;;;3.42;2.50;;;18.60;99.90;;;18.60;100.00;97598.41;4979247;28;20030;-50
2022/09/04 08:15:18;;;;;;;3.17;2.20;;;18.80;99.90;;;18.76;100.00;97599.09;4973625;28;21130;-48
2022/09/04 08:18:20;;;;;;;2.55;2.33;;;18.90;99.90;;;18.88;100.00;97614.34;4973902;28;20070;-51
2022/09/04 08:21:32;;;;;;;2.70;2.40;;;19.00;99.90;;;19.01;100.00;97609.03;4972184;28;20402;-50
2022/09/04 08:24:44;;;;;;;2.80;2.10;;;19.20;99.90;;;19.08;100.00;97610.31;4983678;23;20045;-47
2022/09/04 08:27:59;;;;;;;2.95;2.40;;;19.30;99.90;;;19.28;100.00;97616.13;5012467;28;20049;-47
2022/09/04 08:30:35;;;;;;;3.65;2.22;;;19.40;99.90;;;19.35;100.00;97617.41;5016641;28;20862;-47
2022/09/04 08:33:50;;;;;;;2.50;2.15;;;19.60;99.90;;;19.35;100.00;97629.94;5014734;28;20032;-47
2022/09/04 08:36:51;;;;;;;3.10;2.10;;;19.60;99.90;;;19.30;100.00;97626.72;4988575;28;20041;-45
2022/09/04 08:39:38;;;;;;;4.53;2.17;;;19.50;99.90;;;19.06;100.00;97632.78;4989234;28;20053;-47
2022/09/04 08:42:20;;;;;;;3.53;2.03;;;19.30;99.90;;;18.85;100.00;97630.56;4996062;28;20398;-47
2022/09/04 08:45:21;;;;;;;1.67;1.58;;;19.10;99.90;;;18.66;100.00;97638.06;4994255;28;20059;-46
2022/09/04 08:48:42;;;;;;;2.05;1.70;;;18.90;99.90;;;18.47;100.00;97633.94;4995273;28;20030;-45
2022/09/04 08:51:34;;;;;;;2.03;1.50;;;18.70;99.90;;;18.43;100.00;97643.13;4996527;28;20068;-47
2022/09/04 08:54:28;;;;;;;1.55;1.40;;;18.60;99.90;;;18.48;100.00;97641.00;5008671;28;20107;-44
2022/09/04 08:57:34;;;;;;;2.10;1.60;;;18.70;99.90;;;18.56;100.00;97639.66;4995861;28;20042;-45
2022/09/04 09:00:19;;;;;;;1.77;1.65;;;18.70;99.90;;;18.87;100.00;97641.16;4995318;28;20103;-45
2022/09/04 09:03:28;;;;;;;1.60;1.50;;;19.00;99.90;;;19.12;100.00;97632.34;5014992;28;20081;-46
2022/09/04 09:06:48;;;;;;;2.70;1.83;;;19.30;99.90;;;19.33;100.00;97642.56;4996236;28;20172;-45
2022/09/04 09:09:54;;;;;;;2.75;1.60;;;19.60;99.90;;;19.57;100.00;97638.16;4998606;28;20380;-46
2022/09/04 09:12:41;;;;;;;1.48;1.38;;;19.80;99.90;;;19.72;100.00;97633.56;4997061;28;20037;-48
2022/09/04 09:15:47;;;;;;;1.67;1.58;;;19.90;99.90;;;19.85;100.00;97641.63;4996816;28;20156;-44
2022/09/04 09:19:08;;;;;;;2.40;1.50;;;20.00;99.90;;;20.03;100.00;97637.63;4994870;28;21104;-49
2022/09/04 09:22:11;;;;;;;2.60;1.50;;;20.20;99.90;;;20.12;100.00;97638.78;4997317;28;20040;-47
2022/09/04 09:25:13;;;;;;;5.03;2.17;;;20.20;99.90;;;20.17;100.00;97644.66;4982908;28;20337;-48
2022/09/04 09:28:27;;;;;;;18.52;5.65;;;20.40;99.90;;;20.34;100.00;97637.22;4988828;28;20068;-50
2022/09/04 09:31:48;;;;;;;4.50;1.80;;;20.50;99.90;;;20.47;100.00;97632.69;4994419;28;20062;-45
2022/09/04 09:35:12;;;;;;;1.58;1.23;;;20.60;99.90;;;20.56;100.00;97636.50;4995543;28;20140;-46
2022/09/04 09:38:31;;;;;;;2.83;1.40;;;20.70;99.90;;;20.64;100.00;97642.19;4986795;28;20088;-47
2022/09/04 09:41:41;;;;;;;1.45;1.25;;;20.80;99.90;;;20.73;100.00;97635.31;4992894;28;20092;-45
2022/09/04 09:44:28;;;;;;;2.97;1.40;;;21.00;99.90;;;20.91;100.00;97636.59;4995495;28;20038;-46
2022/09/04 09:47:27;;;;;;;1.90;1.38;;;21.10;99.90;;;21.05;100.00;97638.25;4995073;28;20037;-47
2022/09/04 09:50:11;;;;;;;2.53;1.40;;;21.20;99.90;;;21.17;97.06;97631.94;4994827;28;20165;-46
2022/09/04 09:53:22;;;;;;;1.55;1.20;;;21.40;99.90;;;21.32;96.53;97640.63;4987879;28;20045;-48
2022/09/04 09:56:32;;;;;;;1.67;1.00;;;21.50;99.90;;;21.37;92.11;97629.53;4992257;28;20026;-44
2022/09/04 09:59:50;;;;;;;2.70;1.50;;;21.60;99.90;;;21.51;95.58;97633.88;4986823;28;20041;-49
2022/09/04 10:03:00;;;;;;;1.42;1.20;;;21.70;99.90;;;21.49;87.22;97639.34;4986363;28;20088;-45
2022/09/04 10:06:11;;;;;;;1.40;1.20;;;21.70;99.90;;;21.25;84.65;97622.47;4989715;28;20026;-47
2022/09/04 10:09:15;;;;;;;1.63;1.42;;;21.50;99.90;;;21.51;86.43;97634.72;5002183;28;20164;-45
2022/09/04 10:12:33;;;;;;;1.17;1.08;;;21.60;99.90;;;21.85;84.47;97636.59;4995171;28;20050;-47
2022/09/04 10:16:00;;;;;;;1.10;1.00;;;22.00;99.90;;;22.21;81.40;97632.78;4993110;28;20110;-49
2022/09/04 10:18:48;;;;;;;1.85;1.35;;;22.40;99.90;;;22.56;82.37;97631.78;4993367;28;20453;-45
2022/09/04 10:21:31;;;;;;;1.60;1.20;;;22.70;99.90;;;22.64;82.94;97632.00;5013301;28;20041;-48
2022/09/04 10:24:12;;;;;;;2.40;1.20;;;22.80;99.90;;;22.54;83.33;97628.38;5000792;28;20106;-48
2022/09/04 10:27:18;;;;;;;1.55;1.20;;;22.70;99.90;;;22.33;85.32;97622.91;4996010;28;20073;-46
2022/09/04 10:30:17;;;;;;;2.25;1.30;;;22.50;99.90;;;22.11;85.53;97629.16;4997220;28;20037;-47
2022/09/04 10:33:25;;;;;;;1.67;1.48;;;22.30;99.90;;;22.10;82.93;97624.75;5015122;28;20042;-45
2022/09/04 10:36:20;;;;;;;1.30;1.20;;;22.30;99.90;;;22.00;79.13;97624.66;4999176;28;20113;-45
2022/09/04 10:42:25;;;;;;;1.67;1.10;;;22.30;99.90;;;22.18;79.22;97624.13;5015221;28;20040;-47
2022/09/04 10:45:31;;;;;;;2.08;1.15;;;22.40;99.90;;;22.19;75.95;97629.38;5014808;28;20109;-49
2022/09/04 10:48:33;;;;;;;3.65;1.10;;;22.40;99.90;;;22.23;74.19;97625.44;4992968;28;20659;-46
2022/09/04 10:51:55;;;;;;;1.40;1.20;;;22.50;99.90;;;22.20;71.31;97628.41;5002174;28;20117;-46
2022/09/04 10:55:12;;;;;;;3.05;1.38;;;22.50;99.90;;;22.22;73.25;97625.59;4995540;28;20557;-45
2022/09/04 10:58:38;;;;;;;1.63;1.50;;;22.50;99.90;;;22.23;74.14;97621.91;4996592;28;20697;-44
2022/09/04 11:01:53;;;;;;;2.25;1.55;;;22.40;99.90;;;22.28;79.65;97617.06;4993694;28;20108;-46
2022/09/04 11:05:00;;;;;;;2.20;1.30;;;22.50;99.90;;;22.30;76.84;97617.78;4996458;28;20389;-47
2022/09/04 11:07:41;;;;;;;1.40;1.05;;;22.50;99.90;;;22.32;72.96;97598.88;4998090;28;20030;-48
2022/09/04 11:10:21;;;;;;;1.20;1.10;;;22.60;99.90;;;22.65;80.64;97619.44;4994344;28;20377;-47
2022/09/04 11:13:10;;;;;;;4.25;1.33;;;22.80;99.90;;;22.88;79.11;97615.69;4993121;28;20390;-45
2022/09/04 11:15:56;;;;;;;1.80;1.33;;;23.10;99.90;;;22.91;70.57;97617.25;4993741;28;20096;-47
2022/09/04 11:19:03;;;;;;;1.55;1.20;;;23.20;99.90;;;22.69;69.57;97623.56;4999605;28;20052;-46
2022/09/04 11:21:54;;;;;;;1.20;1.10;;;22.90;99.90;;;22.47;70.61;97613.75;5015363;28;20444;-48
2022/09/04 11:24:54;;;;;;;1.17;1.08;;;22.70;99.90;;;22.29;71.98;97608.88;5013159;28;20025;-49
2022/09/04 11:27:58;;;;;;;2.42;1.10;;;22.40;99.90;;;22.10;72.00;97611.31;5012418;28;20069;-46
2022/09/04 11:30:53;;;;;;;2.17;1.10;;;22.30;99.90;;;21.90;70.50;97611.09;4990906;28;20064;-45
2022/09/04 11:34:03;;;;;;;1.60;1.20;;;22.10;99.90;;;21.69;73.50;97602.91;4998297;28;20041;-46
2022/09/04 11:36:53;;;;;;;1.48;1.15;;;21.90;99.90;;;21.60;75.19;97608.16;4998207;28;20034;-47
2022/09/04 11:40:02;;;;;;;1.25;0.93;;;21.80;99.90;;;21.58;76.34;97604.72;4996750;28;20489;-46
2022/09/04 11:42:42;;;;;;;1.27;1.10;;;21.80;99.90;;;21.72;73.54;97607.19;5014470;28;20058;-48
2022/09/04 11:45:20;;;;;;;0.80;0.80;;;21.90;99.90;;;21.96;73.16;97600.84;4998631;28;20124;-46
2022/09/04 11:48:03;;;;;;;1.20;1.00;;;22.20;99.90;;;22.30;67.58;97610.56;4996633;28;20052;-48
2022/09/04 11:51:16;;;;;;;1.92;1.10;;;22.50;99.90;;;22.73;65.06;97610.72;4994805;28;20680;-47
2022/09/04 11:54:28;;;;;;;1.20;1.05;;;22.90;99.90;;;23.29;65.72;97605.09;4991389;28;20038;-46
2022/09/04 11:57:23;;;;;;;1.10;1.00;;;23.50;99.90;;;23.69;58.87;97606.16;4994882;28;20117;-46
2022/09/04 12:00:13;;;;;;;1.70;1.17;;;24.10;99.90;;;23.99;58.41;97610.75;4986744;28;20068;-48
2022/09/04 12:03:15;;;;;;;4.47;1.17;;;24.30;99.90;;;24.25;56.81;97612.97;4991635;28;20144;-48
2022/09/04 12:06:12;;;;;;;1.17;0.93;;;24.50;99.90;;;24.22;56.78;97618.63;5010970;28;20034;-48
2022/09/04 12:09:39;;;;;;;2.20;1.10;;;24.50;99.80;;;24.16;57.21;97620.88;4996302;28;20038;-46
2022/09/04 12:12:41;;;;;;;1.42;0.82;;;24.40;99.70;;;24.10;55.90;97616.03;4997961;28;20049;-49
2022/09/04 12:15:44;;;;;;;1.05;0.80;;;24.40;99.60;;;24.22;53.30;97618.63;4995635;28;20394;-46
2022/09/04 12:18:37;;;;;;;1.88;1.27;;;24.50;99.40;;;24.42;52.96;97619.53;4998168;28;20026;-48